Portada
METAR-TAF:

METAR-TAF

Aeroports :

Central Park

Nova York, Nova York, Estats Units d'Amèrica

latitud: 40-47-00N, longitud: 073-58-00W, altitud: 47 m

Observació

L'informe es va fer fa 27 minuts, a les 16:51 UTC
Vent 6 kt amb direcció variable
Temperatura 28°C
Humitat 42%
Pressió 1017 hPa
Visibilitat: 16.1 km
Cel clar

METAR: KNYC 151651Z AUTO VRB06KT 10SM CLR 28/14 A3004 RMK AO2 SLP161 T02780144

Hora: 13:18 (17:18 UTC)


TAF: manca

Observacions i pronòstics meteorològics de més de 4000 aeroports (METAR i TAF).

Les estacions disponibles són els punts grocs i vermells al mapa.

Posi el ratolí al punt desitjat per veure el nom de l'estació.

Feu clic per veure les observacions i els pronòstics meteorològics.

Per canviar el mapa: feu clic els botons verds amb una creu de color negre per apropar; al botó verd amb un guió per allunyar la imatge; o en les fletxes verdes per a mapes adjacents.


METAR-TAF: